Taganrogskiy Zaliv — 3FFY5 — position and weather

sailwx.info

Track history (hours):
 
Tides and Currents Weather Stations Pressure Air Temp Water Temp Dewpoint Dewpoint Depression Visibility Wind Speed Wind Dir Waves Ship Positions

Taganrogskiy Zaliv

Last reported at 2017-Sep-23 23:27 UTC. Time now 2017-Sep-25 13:40 UTC.
Position N 01°12' E 103°38'.

Length 150 m; draft 7 m.

Type: Cargo ship. MMSI: 354240000.

Date/timePositionNaut miles runAvg speedWind from/ knotsBaromVisibWave heightAir tempDewpointWater temp
2017-Sep-23 23:27N 01°12' E 103°38'2 3.7
2017-Sep-23 23:00N 01°11' E 103°39'  
2017-Sep-19 08:11N 22°15' E 118°52'1017.0
2017-Sep-19 07:34N 22°24' E 118°59'817.4
2017-Sep-19 07:06N 22°30' E 119°05'217.0
2017-Sep-19 07:01N 22°31' E 119°06'2216.1
2017-Sep-19 05:38N 22°48' E 119°21'215.8
2017-Sep-19 05:30N 22°50' E 119°22'3415.7
2017-Sep-19 03:20N 23°14' E 119°48'514.5
2017-Sep-19 03:00N 23°18' E 119°50'815.4
2017-Sep-19 02:29N 23°26' E 119°50'714.9
2017-Sep-19 02:01N 23°33' E 119°50'713.7
2017-Sep-19 01:29N 23°41' E 119°50'7714.3
2017-Sep-18 20:07N 24°48' E 120°30'  
Track history (hours):
 
Tides and Currents Weather Stations Pressure Air Temp Water Temp Dewpoint Dewpoint Depression Visibility Wind Speed Wind Dir Waves Ship Positions

Taganrogskiy Zaliv

Last reported at 2017-Sep-23 23:27 UTC. Time now 2017-Sep-25 13:40 UTC.
Position N 01°12' E 103°38'.

Length 150 m; draft 7 m.

Type: Cargo ship. MMSI: 354240000.

Date/timePositionNaut miles runAvg speedWind from/ knotsBaromVisibWave heightAir tempDewpointWater temp
2017-Sep-23 23:27N 01°12' E 103°38'2 3.7
2017-Sep-23 23:00N 01°11' E 103°39'  
2017-Sep-19 08:11N 22°15' E 118°52'1017.0
2017-Sep-19 07:34N 22°24' E 118°59'817.4
2017-Sep-19 07:06N 22°30' E 119°05'217.0
2017-Sep-19 07:01N 22°31' E 119°06'2216.1
2017-Sep-19 05:38N 22°48' E 119°21'215.8
2017-Sep-19 05:30N 22°50' E 119°22'3415.7
2017-Sep-19 03:20N 23°14' E 119°48'514.5
2017-Sep-19 03:00N 23°18' E 119°50'815.4
2017-Sep-19 02:29N 23°26' E 119°50'714.9
2017-Sep-19 02:01N 23°33' E 119°50'713.7
2017-Sep-19 01:29N 23°41' E 119°50'7714.3
2017-Sep-18 20:07N 24°48' E 120°30'  

Dump ship's entire track history